createdAt,value
2022-11-13T00:01:15.433Z,5.47
2022-11-13T00:03:43.509Z,6.30
2022-11-13T00:06:12.552Z,7.30
2022-11-13T00:08:40.984Z,7.50
2022-11-13T00:11:11.045Z,6.63
2022-11-13T00:13:39.082Z,7.60
2022-11-13T00:16:10.673Z,7.33
2022-11-13T00:18:40.507Z,8.17
2022-11-13T00:21:10.474Z,7.43
2022-11-13T00:23:38.468Z,7.40
2022-11-13T00:26:08.158Z,7.17
2022-11-13T00:28:36.165Z,8.87
2022-11-13T00:31:05.826Z,8.10
2022-11-13T00:36:26.462Z,8.57
2022-11-13T00:38:55.377Z,8.03
2022-11-13T00:41:23.675Z,7.13
2022-11-13T00:43:51.718Z,8.10
2022-11-13T00:46:19.971Z,7.60
2022-11-13T00:48:47.855Z,7.00
2022-11-13T00:51:15.676Z,6.63
2022-11-13T00:53:44.809Z,7.30
2022-11-13T00:56:12.650Z,6.00
2022-11-13T00:58:40.460Z,6.60
2022-11-13T01:01:11.339Z,5.70
2022-11-13T01:03:40.491Z,7.00
2022-11-13T01:06:14.994Z,6.47
2022-11-13T01:08:44.114Z,6.07
2022-11-13T01:11:13.475Z,7.00
2022-11-13T01:13:42.152Z,6.70
2022-11-13T01:16:12.151Z,6.17
2022-11-13T01:18:41.165Z,6.00
2022-11-13T01:21:11.208Z,5.80
2022-11-13T01:23:39.264Z,5.30
2022-11-13T01:26:11.153Z,5.90
2022-11-13T01:28:39.219Z,4.63
2022-11-13T01:31:08.009Z,4.70
2022-11-13T01:33:36.196Z,6.67
2022-11-13T01:36:06.713Z,6.30
2022-11-13T01:38:37.068Z,5.60
2022-11-13T01:41:05.452Z,6.83
2022-11-13T01:43:36.896Z,6.27
2022-11-13T01:46:25.660Z,7.53
2022-11-13T01:48:59.204Z,5.70
2022-11-13T01:51:30.737Z,8.53
2022-11-13T01:53:59.740Z,4.80
2022-11-13T01:56:27.806Z,6.20
2022-11-13T01:59:02.667Z,7.37
2022-11-13T02:01:30.515Z,6.20
2022-11-13T02:03:58.316Z,7.00
2022-11-13T02:06:26.837Z,7.40
2022-11-13T02:08:54.894Z,7.50
2022-11-13T02:11:22.752Z,7.23
2022-11-13T02:13:50.862Z,6.47
2022-11-13T02:16:22.588Z,8.60
2022-11-13T02:18:51.299Z,9.07
2022-11-13T02:21:28.051Z,6.40
2022-11-13T02:24:02.188Z,7.07
2022-11-13T02:26:33.799Z,7.43
2022-11-13T02:29:01.628Z,6.50
2022-11-13T02:31:29.440Z,5.90
2022-11-13T02:33:57.184Z,7.90
2022-11-13T02:36:27.037Z,6.10
2022-11-13T02:38:56.087Z,5.80
2022-11-13T02:41:23.929Z,5.40
2022-11-13T02:43:53.033Z,5.80
2022-11-13T02:46:20.776Z,6.13
2022-11-13T02:48:48.539Z,5.43
2022-11-13T02:51:16.335Z,5.80
2022-11-13T02:53:44.137Z,5.67
2022-11-13T02:56:11.979Z,5.73
2022-11-13T02:58:40.034Z,6.27
2022-11-13T03:01:09.208Z,6.90
2022-11-13T03:06:27.125Z,5.67
2022-11-13T03:08:54.913Z,5.80
2022-11-13T03:11:22.712Z,5.00
2022-11-13T03:13:50.475Z,6.50
2022-11-13T03:16:19.754Z,5.00
2022-11-13T03:18:47.535Z,5.70
2022-11-13T03:21:16.224Z,5.20
2022-11-13T03:23:45.476Z,4.97
2022-11-13T03:26:14.702Z,4.90
2022-11-13T03:36:43.347Z,5.33
2022-11-13T03:39:12.076Z,4.70
2022-11-13T03:41:39.833Z,5.40
2022-11-13T03:44:07.724Z,5.30
2022-11-13T03:46:35.516Z,6.70
2022-11-13T03:49:03.341Z,5.70
2022-11-13T03:51:31.117Z,5.20
2022-11-13T03:54:00.229Z,4.67
2022-11-13T03:56:27.984Z,5.30
2022-11-13T03:58:55.830Z,6.50
2022-11-13T04:01:23.690Z,5.83
2022-11-13T04:03:51.529Z,5.83
2022-11-13T04:06:19.370Z,5.70
2022-11-13T04:08:47.171Z,5.93
2022-11-13T04:11:16.297Z,6.13
2022-11-13T04:13:44.061Z,5.77
2022-11-13T04:16:11.791Z,5.50
2022-11-13T04:18:39.549Z,4.60
2022-11-13T04:21:07.332Z,5.13
2022-11-13T04:23:35.139Z,4.23
2022-11-13T04:26:03.027Z,4.27
2022-11-13T04:28:32.408Z,4.50
2022-11-13T04:31:00.443Z,4.40
2022-11-13T04:33:28.255Z,4.20
2022-11-13T04:35:56.060Z,3.70
2022-11-13T04:38:23.840Z,5.20
2022-11-13T04:41:12.512Z,4.67
2022-11-13T04:43:40.630Z,4.00
2022-11-13T04:46:08.921Z,4.47
2022-11-13T04:48:36.726Z,5.00
2022-11-13T04:51:04.835Z,4.23
2022-11-13T04:53:32.602Z,4.33
2022-11-13T04:56:00.352Z,4.30
2022-11-13T04:58:28.417Z,3.10
2022-11-13T05:00:57.773Z,3.63
2022-11-13T05:03:25.612Z,4.10
2022-11-13T05:05:53.339Z,4.03
2022-11-13T05:08:21.148Z,4.10
2022-11-13T05:10:49.052Z,3.53
2022-11-13T05:13:19.000Z,3.43
2022-11-13T05:15:46.801Z,3.07
2022-11-13T05:18:15.940Z,3.57
2022-11-13T05:20:43.761Z,4.20
2022-11-13T05:23:11.569Z,4.00
2022-11-13T05:25:39.382Z,4.00
2022-11-13T05:28:07.241Z,4.93
2022-11-13T05:30:35.032Z,3.70
2022-11-13T05:33:02.794Z,4.60
2022-11-13T05:35:32.048Z,5.10
2022-11-13T05:38:01.648Z,5.03
2022-11-13T05:40:29.897Z,4.73
2022-11-13T05:42:57.811Z,6.00
2022-11-13T05:45:25.581Z,5.27
2022-11-13T05:47:53.370Z,5.07
2022-11-13T05:50:22.359Z,5.60
2022-11-13T05:52:51.492Z,4.73
2022-11-13T05:55:23.174Z,6.70
2022-11-13T05:57:51.309Z,5.07
2022-11-13T06:00:19.945Z,6.10
2022-11-13T06:02:47.952Z,5.33
2022-11-13T06:05:15.827Z,5.80
2022-11-13T06:07:43.632Z,7.20
2022-11-13T06:10:13.455Z,5.23
2022-11-13T06:12:41.243Z,5.80
2022-11-13T06:15:09.751Z,5.77
2022-11-13T06:17:37.489Z,7.03
2022-11-13T06:20:05.824Z,8.30
2022-11-13T06:22:33.573Z,12.37
2022-11-13T06:25:01.317Z,11.23
2022-11-13T06:27:30.456Z,13.27
2022-11-13T06:29:58.245Z,11.50
2022-11-13T06:32:26.175Z,9.07
2022-11-13T06:34:53.948Z,10.10
2022-11-13T06:37:21.790Z,9.50
2022-11-13T06:39:49.557Z,10.13
2022-11-13T06:42:17.340Z,9.10
2022-11-13T06:44:46.484Z,9.90
2022-11-13T06:47:14.284Z,11.37
2022-11-13T06:49:42.023Z,10.00
2022-11-13T06:52:09.800Z,11.37
2022-11-13T06:54:37.583Z,11.50
2022-11-13T06:57:05.324Z,10.40
2022-11-13T06:59:33.095Z,10.00
2022-11-13T07:02:05.316Z,9.33
2022-11-13T07:04:33.114Z,10.87
2022-11-13T07:07:00.886Z,10.97
2022-11-13T07:09:28.681Z,9.67
2022-11-13T07:11:56.513Z,10.80
2022-11-13T07:14:24.288Z,9.57
2022-11-13T07:17:10.407Z,9.90
2022-11-13T07:19:39.818Z,11.40
2022-11-13T07:22:07.538Z,9.47
2022-11-13T07:24:35.316Z,7.90
2022-11-13T07:27:03.093Z,12.93
2022-11-13T07:29:30.865Z,10.43
2022-11-13T07:31:58.646Z,10.07
2022-11-13T07:34:26.774Z,8.40
2022-11-13T07:36:55.899Z,9.13
2022-11-13T07:39:23.712Z,9.23
2022-11-13T07:41:53.256Z,9.40
2022-11-13T07:44:47.670Z,13.10
2022-11-13T07:47:08.869Z,8.80
2022-11-13T07:49:36.630Z,7.50
2022-11-13T07:52:06.087Z,6.20
2022-11-13T07:54:33.929Z,6.00
2022-11-13T07:57:01.760Z,7.10
2022-11-13T07:59:29.553Z,7.07
2022-11-13T08:01:57.557Z,5.63
2022-11-13T08:04:25.504Z,6.20
2022-11-13T08:06:53.408Z,6.40
2022-11-13T08:09:22.840Z,5.40
2022-11-13T08:11:50.657Z,6.33
2022-11-13T08:14:18.453Z,6.00
2022-11-13T08:16:46.250Z,6.90
2022-11-13T08:19:14.335Z,7.23
2022-11-13T08:21:42.245Z,9.20
2022-11-13T08:24:10.621Z,6.50
2022-11-13T08:26:40.340Z,7.90
2022-11-13T08:29:08.292Z,10.53
2022-11-13T08:31:36.126Z,9.47
2022-11-13T08:34:03.981Z,7.30
2022-11-13T08:36:31.868Z,6.17
2022-11-13T08:38:59.678Z,8.43
2022-11-13T08:41:27.464Z,7.70
2022-11-13T08:43:56.593Z,8.87
2022-11-13T08:46:24.367Z,8.00
2022-11-13T08:48:52.248Z,9.10
2022-11-13T08:51:20.486Z,8.00
2022-11-13T08:53:48.302Z,7.30
2022-11-13T08:56:16.113Z,9.20
2022-11-13T08:58:43.876Z,9.37
2022-11-13T09:01:13.071Z,13.63
2022-11-13T09:03:40.862Z,10.67
2022-11-13T09:06:09.952Z,9.23
2022-11-13T09:08:37.759Z,12.03
2022-11-13T09:11:06.275Z,10.03
2022-11-13T09:13:36.610Z,8.23
2022-11-13T09:16:08.132Z,10.07
2022-11-13T09:18:37.302Z,9.87
2022-11-13T09:21:05.379Z,9.73
2022-11-13T09:23:33.198Z,8.80
2022-11-13T09:26:02.846Z,8.03
2022-11-13T09:28:31.202Z,7.60
2022-11-13T09:30:59.284Z,8.20
2022-11-13T09:33:33.337Z,9.73
2022-11-13T09:36:25.904Z,10.20
2022-11-13T09:38:56.494Z,8.40
2022-11-13T09:41:37.559Z,10.30
2022-11-13T09:44:15.070Z,8.60
2022-11-13T09:47:13.073Z,8.43
2022-11-13T09:50:16.591Z,8.70
2022-11-13T09:53:05.988Z,9.03
2022-11-13T09:56:03.567Z,9.10
2022-11-13T10:02:27.850Z,10.43
2022-11-13T10:05:54.559Z,7.47
2022-11-13T10:08:32.283Z,9.70
2022-11-13T10:14:22.613Z,10.80
2022-11-13T10:16:55.765Z,8.30
2022-11-13T10:19:31.178Z,10.00
2022-11-13T10:22:26.400Z,7.63
2022-11-13T10:24:57.882Z,9.80
2022-11-13T10:27:25.799Z,9.13
2022-11-13T10:29:53.628Z,8.70
2022-11-13T10:32:22.961Z,9.63
2022-11-13T10:34:58.061Z,8.90
2022-11-13T10:37:40.909Z,8.07
2022-11-13T10:40:25.817Z,10.43
2022-11-13T10:42:53.701Z,7.90
2022-11-13T10:45:23.372Z,9.90
2022-11-13T10:48:07.711Z,8.30
2022-11-13T10:50:36.171Z,7.27
2022-11-13T10:53:04.446Z,8.27
2022-11-13T10:55:43.155Z,9.03
2022-11-13T10:58:16.249Z,8.03
2022-11-13T11:00:47.358Z,8.50
2022-11-13T11:03:17.069Z,8.10
2022-11-13T11:05:54.242Z,10.33
2022-11-13T11:08:27.222Z,8.70
2022-11-13T11:11:17.107Z,8.77
2022-11-13T11:13:45.481Z,7.63
2022-11-13T11:16:19.238Z,7.03
2022-11-13T11:18:52.932Z,7.70
2022-11-13T11:21:26.021Z,8.53
2022-11-13T11:24:03.967Z,7.50
2022-11-13T11:26:37.065Z,7.47
2022-11-13T11:29:15.625Z,7.77
2022-11-13T11:31:51.377Z,8.37
2022-11-13T11:34:26.053Z,6.93
2022-11-13T11:37:04.006Z,8.07
2022-11-13T11:39:40.314Z,7.70
2022-11-13T11:42:21.027Z,8.80
2022-11-13T11:45:04.909Z,7.20
2022-11-13T11:47:34.364Z,8.33
2022-11-13T11:50:02.756Z,8.10
2022-11-13T11:52:46.970Z,7.37
2022-11-13T11:55:32.340Z,6.73
2022-11-13T11:58:07.746Z,7.83
2022-11-13T12:00:40.614Z,7.80
2022-11-13T12:03:37.752Z,8.30
2022-11-13T12:06:14.026Z,7.90
2022-11-13T12:08:49.013Z,7.70
2022-11-13T12:11:25.852Z,6.50
2022-11-13T12:14:07.129Z,6.40
2022-11-13T12:16:42.520Z,6.40
2022-11-13T12:19:19.409Z,5.87
2022-11-13T12:21:53.254Z,6.90
2022-11-13T12:24:55.891Z,6.73
2022-11-13T12:27:32.467Z,8.00
2022-11-13T12:30:11.576Z,7.13
2022-11-13T12:32:55.955Z,7.17
2022-11-13T12:35:26.116Z,5.97
2022-11-13T12:38:02.286Z,6.67
2022-11-13T12:40:38.689Z,6.50
2022-11-13T12:43:32.228Z,6.47
2022-11-13T12:46:08.188Z,6.90
2022-11-13T12:48:40.622Z,7.20
2022-11-13T12:51:10.836Z,6.80
2022-11-13T12:53:48.441Z,6.37
2022-11-13T12:56:30.006Z,7.63
2022-11-13T12:59:29.069Z,6.30
2022-11-13T13:02:04.782Z,7.27
2022-11-13T13:04:58.661Z,6.30
2022-11-13T13:07:46.313Z,5.73
2022-11-13T13:10:20.733Z,6.77
2022-11-13T13:12:57.293Z,6.87
2022-11-13T13:15:35.421Z,6.23
2022-11-13T13:18:09.810Z,6.93
2022-11-13T13:20:39.897Z,6.40
2022-11-13T13:23:12.669Z,7.27
2022-11-13T13:25:41.225Z,7.77
2022-11-13T13:28:21.136Z,6.93
2022-11-13T13:30:57.906Z,6.93
2022-11-13T13:33:38.563Z,7.23
2022-11-13T13:36:16.655Z,6.47
2022-11-13T13:38:52.666Z,7.00
2022-11-13T13:41:31.517Z,7.47
2022-11-13T13:44:18.619Z,6.70
2022-11-13T13:46:46.744Z,15.17
2022-11-13T13:49:19.187Z,9.63
2022-11-13T13:51:51.341Z,9.33
2022-11-13T13:54:24.894Z,9.87
2022-11-13T13:56:53.921Z,8.70
2022-11-13T13:59:30.538Z,8.40
2022-11-13T14:02:00.962Z,8.50
2022-11-13T14:04:39.576Z,8.80
2022-11-13T14:07:20.501Z,11.30
2022-11-13T14:09:48.391Z,8.10
2022-11-13T14:12:20.111Z,8.83
2022-11-13T14:14:48.226Z,9.17
2022-11-13T14:17:29.419Z,7.20
2022-11-13T14:20:01.739Z,6.13
2022-11-13T14:22:33.862Z,6.60
2022-11-13T14:25:02.856Z,9.10
2022-11-13T14:27:31.074Z,6.57
2022-11-13T14:30:03.682Z,7.70
2022-11-13T14:32:34.866Z,8.80
2022-11-13T14:35:06.246Z,6.10
2022-11-13T14:37:39.001Z,5.60
2022-11-13T14:40:20.020Z,5.00
2022-11-13T14:48:31.627Z,5.80
2022-11-13T14:51:02.270Z,6.00
2022-11-13T14:53:32.810Z,6.23
2022-11-13T14:56:02.760Z,7.20
2022-11-13T14:58:33.234Z,6.37
2022-11-13T15:01:13.034Z,5.37
2022-11-13T15:03:40.967Z,5.10
2022-11-13T15:06:15.531Z,5.40
2022-11-13T15:08:44.199Z,5.43
2022-11-13T15:11:14.543Z,5.57
2022-11-13T15:13:42.510Z,5.77
2022-11-13T15:16:14.423Z,7.50
2022-11-13T15:18:44.079Z,6.47
2022-11-13T15:21:13.348Z,5.13
2022-11-13T15:23:41.404Z,6.70
2022-11-13T15:26:10.990Z,5.00
2022-11-13T15:28:39.664Z,6.10
2022-11-13T15:31:18.837Z,5.90
2022-11-13T15:33:47.006Z,5.80
2022-11-13T15:36:16.219Z,6.83
2022-11-13T15:38:44.161Z,6.60
2022-11-13T15:41:15.111Z,5.90
2022-11-13T15:43:45.795Z,5.67
2022-11-13T15:46:16.288Z,6.37
2022-11-13T15:48:44.381Z,7.20
2022-11-13T15:51:20.431Z,6.03
2022-11-13T15:53:51.925Z,55.97
2022-11-13T15:56:20.304Z,60.73
2022-11-13T15:58:48.171Z,15.23
2022-11-13T16:01:16.869Z,14.50
2022-11-13T16:03:48.170Z,8.37
2022-11-13T16:06:25.666Z,10.10
2022-11-13T16:08:57.873Z,8.73
2022-11-13T16:11:28.196Z,7.87
2022-11-13T16:13:57.984Z,14.57
2022-11-13T16:16:32.228Z,8.40
2022-11-13T16:19:12.550Z,19.67
2022-11-13T16:21:43.412Z,10.57
2022-11-13T16:24:12.386Z,8.97
2022-11-13T16:26:41.661Z,8.17
2022-11-13T16:29:20.034Z,8.37
2022-11-13T16:31:48.840Z,9.17
2022-11-13T16:34:16.754Z,9.70
2022-11-13T16:36:46.385Z,8.50
2022-11-13T16:39:18.763Z,9.50
2022-11-13T16:41:46.803Z,8.20
2022-11-13T16:44:17.669Z,9.13
2022-11-13T16:46:54.370Z,9.00
2022-11-13T16:49:24.186Z,12.73
2022-11-13T16:51:55.207Z,13.07
2022-11-13T16:54:23.251Z,9.73
2022-11-13T16:57:14.348Z,22.30
2022-11-13T16:59:46.229Z,17.90
2022-11-13T17:02:18.681Z,15.53
2022-11-13T17:04:57.280Z,15.90
2022-11-13T17:07:26.648Z,15.70
2022-11-13T17:10:16.693Z,18.73
2022-11-13T17:12:42.675Z,21.90
2022-11-13T17:15:11.526Z,22.37
2022-11-13T17:17:39.435Z,24.00
2022-11-13T17:20:08.555Z,21.10
2022-11-13T17:22:37.760Z,22.00
2022-11-13T17:30:18.519Z,23.07
2022-11-13T17:32:46.320Z,24.90
2022-11-13T17:35:14.558Z,25.87
2022-11-13T17:37:43.702Z,26.77
2022-11-13T17:40:12.800Z,25.50
2022-11-13T17:42:42.045Z,29.70
2022-11-13T17:45:10.601Z,31.97
2022-11-13T17:47:38.494Z,29.57
2022-11-13T17:50:07.946Z,29.77
2022-11-13T17:52:35.869Z,31.17
2022-11-13T17:55:07.267Z,28.10
2022-11-13T17:57:35.225Z,24.57
2022-11-13T18:00:03.475Z,26.37
2022-11-13T18:02:31.628Z,24.10
2022-11-13T18:05:01.265Z,23.97
2022-11-13T18:07:29.659Z,22.93
2022-11-13T18:09:57.698Z,24.40
2022-11-13T18:15:01.793Z,23.20
2022-11-13T18:17:29.631Z,24.50
2022-11-13T18:20:01.702Z,25.87
2022-11-13T18:22:30.385Z,26.13
2022-11-13T18:24:58.351Z,25.00
2022-11-13T18:27:26.347Z,28.23
2022-11-13T18:29:54.379Z,29.00
2022-11-13T18:32:23.705Z,28.17
2022-11-13T18:34:51.657Z,24.90
2022-11-13T18:37:21.096Z,25.53
2022-11-13T18:39:49.161Z,31.73
2022-11-13T18:42:17.113Z,26.00
2022-11-13T19:04:34.409Z,23.80
2022-11-13T19:06:53.324Z,26.80
2022-11-13T19:09:24.207Z,30.60
2022-11-13T19:11:52.750Z,33.90
2022-11-13T19:14:20.633Z,28.00
2022-11-13T19:16:48.434Z,35.77
2022-11-13T19:19:19.365Z,25.50
2022-11-13T19:21:47.807Z,30.20
2022-11-13T19:24:15.968Z,25.50
2022-11-13T19:26:45.849Z,26.90
2022-11-13T19:29:14.384Z,26.43
2022-11-13T19:31:43.290Z,21.57
2022-11-13T19:34:13.164Z,25.30
2022-11-13T19:36:44.846Z,21.33
2022-11-13T19:39:13.200Z,20.37
2022-11-13T19:41:41.038Z,20.03
2022-11-13T19:44:11.129Z,23.57
2022-11-13T19:46:39.011Z,22.77
2022-11-13T19:49:07.573Z,23.67
2022-11-13T19:51:35.619Z,22.30
2022-11-13T19:54:05.033Z,20.23
2022-11-13T19:56:33.066Z,23.87
2022-11-13T19:59:00.941Z,19.90
2022-11-13T20:01:31.709Z,22.27
2022-11-13T20:04:01.205Z,30.13
2022-11-13T20:06:31.518Z,25.07
2022-11-13T20:08:59.684Z,24.47
2022-11-13T20:11:29.192Z,22.07
2022-11-13T20:13:57.876Z,22.00
2022-11-13T20:16:26.699Z,23.03
2022-11-13T20:18:58.926Z,22.67
2022-11-13T20:21:28.156Z,19.57
2022-11-13T20:23:59.555Z,21.13
2022-11-13T20:26:31.157Z,22.30
2022-11-13T20:28:59.265Z,19.10
2022-11-13T20:31:27.755Z,21.10
2022-11-13T20:33:57.509Z,19.93
2022-11-13T20:36:26.232Z,24.50
2022-11-13T20:38:56.159Z,19.27
2022-11-13T20:41:24.517Z,18.60
2022-11-13T20:43:55.848Z,23.77
2022-11-13T20:46:24.885Z,27.20
2022-11-13T20:48:53.011Z,21.40
2022-11-13T20:51:22.501Z,18.93
2022-11-13T20:53:51.204Z,21.50
2022-11-13T20:56:20.393Z,20.77
2022-11-13T20:58:48.359Z,23.43
2022-11-13T21:01:19.322Z,28.90
2022-11-13T21:03:47.925Z,24.67
2022-11-13T21:06:17.756Z,23.97
2022-11-13T21:08:46.043Z,18.93
2022-11-13T21:11:16.183Z,21.33
2022-11-13T21:13:43.962Z,22.73
2022-11-13T21:16:12.649Z,22.30
2022-11-13T21:18:41.864Z,22.60
2022-11-13T21:21:11.750Z,23.73
2022-11-13T21:23:39.548Z,20.43
2022-11-13T21:26:08.587Z,18.60
2022-11-13T21:28:37.408Z,21.83
2022-11-13T21:31:06.871Z,21.70
2022-11-13T21:33:37.768Z,19.67
2022-11-13T21:36:09.283Z,20.20
2022-11-13T21:38:37.137Z,20.80
2022-11-13T21:41:21.662Z,18.33
2022-11-13T21:43:49.942Z,20.40
2022-11-13T21:46:18.811Z,20.57
2022-11-13T21:48:46.737Z,21.30
2022-11-13T21:51:16.384Z,22.37
2022-11-13T21:53:44.556Z,21.60
2022-11-13T21:56:15.873Z,19.57
2022-11-13T21:58:44.169Z,20.83
2022-11-13T22:01:13.033Z,19.63
2022-11-13T22:03:41.258Z,19.00
2022-11-13T22:06:19.065Z,20.60
2022-11-13T22:08:53.625Z,19.10
2022-11-13T22:11:21.401Z,18.77
2022-11-13T22:13:49.333Z,20.30
2022-11-13T22:16:17.524Z,19.47
2022-11-13T22:18:45.637Z,20.33
2022-11-13T22:21:16.237Z,20.50
2022-11-13T22:23:44.073Z,17.97
2022-11-13T22:26:13.545Z,18.30
2022-11-13T22:28:42.750Z,17.30
2022-11-13T22:31:15.357Z,16.40
2022-11-13T22:33:48.178Z,16.80
2022-11-13T22:36:22.266Z,17.00
2022-11-13T22:38:50.658Z,15.57
2022-11-13T22:41:23.230Z,16.00
2022-11-13T22:43:53.141Z,16.10
2022-11-13T22:46:22.464Z,16.07
2022-11-13T22:48:51.701Z,15.30
2022-11-13T22:51:23.376Z,15.13
2022-11-13T22:53:52.517Z,14.80
2022-11-13T22:56:21.653Z,15.43
2022-11-13T22:58:49.936Z,13.43
2022-11-13T23:01:19.401Z,14.20
2022-11-13T23:03:48.899Z,15.23
2022-11-13T23:06:21.009Z,15.70
2022-11-13T23:08:49.429Z,16.03
2022-11-13T23:11:19.184Z,13.07
2022-11-13T23:13:48.787Z,14.03
2022-11-13T23:16:17.453Z,13.80
2022-11-13T23:18:45.602Z,13.33
2022-11-13T23:21:15.491Z,13.87
2022-11-13T23:23:44.785Z,13.90
2022-11-13T23:26:13.832Z,13.70
2022-11-13T23:28:42.438Z,13.93
2022-11-13T23:31:10.698Z,13.87
2022-11-13T23:33:40.115Z,12.23
2022-11-13T23:36:08.839Z,13.10
2022-11-13T23:38:36.829Z,11.63
2022-11-13T23:41:06.518Z,12.73
2022-11-13T23:44:06.650Z,11.27
2022-11-13T23:46:22.353Z,10.90
2022-11-13T23:48:50.119Z,12.40
2022-11-13T23:51:17.945Z,12.33
2022-11-13T23:53:45.740Z,12.97
2022-11-13T23:56:14.933Z,11.53
2022-11-13T23:58:42.671Z,12.63
